Esquina — 2DOU6 — position and weather

sailwx.info

Track history (hours):
 
Tides and Currents Weather Stations Pressure Air Temp Water Temp Dewpoint Dewpoint Depression Visibility Wind Speed Wind Dir Waves Ship Positions

Esquina

Last reported at 2016-Dec-02 12:16 UTC. Time now 2016-Dec-05 00:28 UTC.
Position N 47°43' W 003°21'.

Type: Other ship. MMSI: 235080801.

Date/timePositionNaut miles runAvg speedWind from/ knotsBaromVisibWave heightAir tempDewpointWater temp
2016-Dec-02 12:16N 47°43' W 003°21'1 1.6
2016-Dec-02 11:33N 47°44' W 003°21'10 9.6
2016-Dec-02 10:33N 47°36' W 003°14'1 0.6
2016-Dec-02 09:33N 47°36' W 003°14'1 0.5
2016-Dec-02 08:33N 47°37' W 003°14'2 2.5
2016-Dec-02 07:33N 47°34' W 003°12'8 7.7
2016-Dec-02 06:33N 47°40' W 003°20'5 4.6
2016-Dec-02 05:31N 47°45' W 003°21'2 0.1
2016-Dec-01 14:31N 47°43' W 003°21'5 5.0
2016-Dec-01 13:27N 47°37' W 003°20'5 0.3
2016-Nov-30 16:31N 47°43' W 003°21'4 4.5
2016-Nov-30 15:33N 47°40' W 003°16'4 3.4
2016-Nov-30 14:31N 47°37' W 003°18'1 0.8
2016-Nov-30 13:33N 47°37' W 003°17'1 0.8
2016-Nov-30 12:31N 47°36' W 003°16'4 4.0
2016-Nov-30 11:33N 47°40' W 003°19'1 1.3
2016-Nov-30 10:33N 47°40' W 003°21'0 0.5
2016-Nov-30 09:31N 47°40' W 003°20'1 0.5
2016-Nov-30 08:32N 47°40' W 003°19'2 1.9
2016-Nov-30 07:28N 47°40' W 003°16'4 4.8
2016-Nov-30 06:33N 47°43' W 003°22'0 0.0
2016-Nov-29 13:11N 47°43' W 003°21'1 1.6
2016-Nov-29 12:32N 47°44' W 003°22'6 6.3
2016-Nov-29 11:33N 47°39' W 003°16'2 1.8
2016-Nov-29 10:31N 47°37' W 003°15'1 0.6
2016-Nov-29 09:32N 47°38' W 003°15'1 0.6
2016-Nov-29 08:32N 47°37' W 003°16'1 1.1
2016-Nov-29 07:33N 47°38' W 003°15'6 6.2
2016-Nov-29 06:33N 47°43' W 003°22'1 0.0
2016-Nov-28 12:32N 47°43' W 003°21'0 0.0
2016-Nov-28 11:32N 47°43' W 003°21'0 0.0
2016-Nov-28 10:32N 47°43' W 003°21'0 0.0
2016-Nov-28 09:32N 47°43' W 003°21'  
2016-Nov-25 12:30N 47°43' W 003°21'0 0.0
2016-Nov-25 11:33N 47°43' W 003°21'0 0.0
2016-Nov-25 10:33N 47°43' W 003°21'0 0.0
2016-Nov-23 14:32N 47°43' W 003°21'3 0.8
2016-Nov-23 10:33N 47°40' W 003°18'4 3.8
2016-Nov-23 09:29N 47°37' W 003°15'1 0.9
2016-Nov-23 08:33N 47°38' W 003°16'3 2.6
2016-Nov-23 07:33N 47°40' W 003°16'5 4.6
2016-Nov-23 06:33N 47°43' W 003°22'  
Track history (hours):
 
Tides and Currents Weather Stations Pressure Air Temp Water Temp Dewpoint Dewpoint Depression Visibility Wind Speed Wind Dir Waves Ship Positions

Esquina

Last reported at 2016-Dec-02 12:16 UTC. Time now 2016-Dec-05 00:28 UTC.
Position N 47°43' W 003°21'.

Type: Other ship. MMSI: 235080801.

Date/timePositionNaut miles runAvg speedWind from/ knotsBaromVisibWave heightAir tempDewpointWater temp
2016-Dec-02 12:16N 47°43' W 003°21'1 1.6
2016-Dec-02 11:33N 47°44' W 003°21'10 9.6
2016-Dec-02 10:33N 47°36' W 003°14'1 0.6
2016-Dec-02 09:33N 47°36' W 003°14'1 0.5
2016-Dec-02 08:33N 47°37' W 003°14'2 2.5
2016-Dec-02 07:33N 47°34' W 003°12'8 7.7
2016-Dec-02 06:33N 47°40' W 003°20'5 4.6
2016-Dec-02 05:31N 47°45' W 003°21'2 0.1
2016-Dec-01 14:31N 47°43' W 003°21'5 5.0
2016-Dec-01 13:27N 47°37' W 003°20'5 0.3
2016-Nov-30 16:31N 47°43' W 003°21'4 4.5
2016-Nov-30 15:33N 47°40' W 003°16'4 3.4
2016-Nov-30 14:31N 47°37' W 003°18'1 0.8
2016-Nov-30 13:33N 47°37' W 003°17'1 0.8
2016-Nov-30 12:31N 47°36' W 003°16'4 4.0
2016-Nov-30 11:33N 47°40' W 003°19'1 1.3
2016-Nov-30 10:33N 47°40' W 003°21'0 0.5
2016-Nov-30 09:31N 47°40' W 003°20'1 0.5
2016-Nov-30 08:32N 47°40' W 003°19'2 1.9
2016-Nov-30 07:28N 47°40' W 003°16'4 4.8
2016-Nov-30 06:33N 47°43' W 003°22'0 0.0
2016-Nov-29 13:11N 47°43' W 003°21'1 1.6
2016-Nov-29 12:32N 47°44' W 003°22'6 6.3
2016-Nov-29 11:33N 47°39' W 003°16'2 1.8
2016-Nov-29 10:31N 47°37' W 003°15'1 0.6
2016-Nov-29 09:32N 47°38' W 003°15'1 0.6
2016-Nov-29 08:32N 47°37' W 003°16'1 1.1
2016-Nov-29 07:33N 47°38' W 003°15'6 6.2
2016-Nov-29 06:33N 47°43' W 003°22'1 0.0
2016-Nov-28 12:32N 47°43' W 003°21'0 0.0
2016-Nov-28 11:32N 47°43' W 003°21'0 0.0
2016-Nov-28 10:32N 47°43' W 003°21'0 0.0
2016-Nov-28 09:32N 47°43' W 003°21'  
2016-Nov-25 12:30N 47°43' W 003°21'0 0.0
2016-Nov-25 11:33N 47°43' W 003°21'0 0.0
2016-Nov-25 10:33N 47°43' W 003°21'0 0.0
2016-Nov-23 14:32N 47°43' W 003°21'3 0.8
2016-Nov-23 10:33N 47°40' W 003°18'4 3.8
2016-Nov-23 09:29N 47°37' W 003°15'1 0.9
2016-Nov-23 08:33N 47°38' W 003°16'3 2.6
2016-Nov-23 07:33N 47°40' W 003°16'5 4.6
2016-Nov-23 06:33N 47°43' W 003°22'  

Dump ship's entire track history